createdAt,value
2023-04-05T00:01:19.386Z,100928.50
2023-04-05T00:04:05.943Z,100929.06
2023-04-05T00:06:53.235Z,100899.75
2023-04-05T00:09:39.183Z,100934.81
2023-04-05T00:12:25.201Z,100951.53
2023-04-05T00:15:11.587Z,100953.44
2023-04-05T00:17:58.414Z,100960.50
2023-04-05T00:20:45.067Z,100911.03
2023-04-05T00:23:37.567Z,100902.34
2023-04-05T00:26:23.402Z,100881.06
2023-04-05T00:29:14.539Z,100909.00
2023-04-05T00:32:00.963Z,100865.03
2023-04-05T00:34:48.028Z,100936.25
2023-04-05T00:37:34.183Z,100878.81
2023-04-05T00:40:20.682Z,100924.81
2023-04-05T00:43:06.664Z,100877.84
2023-04-05T00:45:53.565Z,100837.97
2023-04-05T00:48:40.350Z,100877.97
2023-04-05T00:51:26.787Z,100929.88
2023-04-05T00:54:14.490Z,100929.88
2023-04-05T00:57:01.037Z,100920.88
2023-04-05T00:59:47.754Z,100886.16
2023-04-05T01:02:39.464Z,100816.22
2023-04-05T01:05:34.485Z,100868.91
2023-04-05T01:08:29.160Z,100893.31
2023-04-05T01:11:16.526Z,100845.50
2023-04-05T01:14:02.904Z,100888.13
2023-04-05T01:16:50.292Z,100839.69
2023-04-05T01:19:42.072Z,100903.94
2023-04-05T01:22:38.152Z,100897.44
2023-04-05T01:25:43.592Z,100892.81
2023-04-05T01:28:57.940Z,100893.63
2023-04-05T01:31:53.485Z,100894.72
2023-04-05T01:35:10.071Z,100887.38
2023-04-05T01:38:01.405Z,100857.34
2023-04-05T01:40:48.058Z,100862.28
2023-04-05T01:43:34.468Z,100846.69
2023-04-05T01:46:21.068Z,100827.25
2023-04-05T01:49:07.221Z,100816.84
2023-04-05T01:51:53.407Z,100830.78
2023-04-05T01:54:40.994Z,100821.47
2023-04-05T01:57:28.405Z,100887.31
2023-04-05T02:00:14.536Z,100836.22
2023-04-05T02:03:00.644Z,100800.31
2023-04-05T02:05:47.340Z,100810.84
2023-04-05T02:08:33.251Z,100832.75
2023-04-05T02:11:19.747Z,100759.53
2023-04-05T02:14:05.468Z,100767.53
2023-04-05T02:16:53.890Z,100852.56
2023-04-05T02:19:46.340Z,100820.38
2023-04-05T02:22:32.859Z,100817.41
2023-04-05T02:25:18.988Z,100854.84
2023-04-05T02:28:05.433Z,100837.09
2023-04-05T02:30:51.565Z,100800.19
2023-04-05T02:33:38.577Z,100793.97
2023-04-05T02:36:24.544Z,100839.25
2023-04-05T02:39:11.829Z,100771.19
2023-04-05T02:41:59.242Z,100817.44
2023-04-05T02:44:45.275Z,100752.41
2023-04-05T02:47:34.257Z,100826.91
2023-04-05T02:50:21.545Z,100814.22
2023-04-05T02:53:07.437Z,100831.84
2023-04-05T02:55:57.507Z,100800.91
2023-04-05T02:58:44.309Z,100812.66
2023-04-05T03:01:32.774Z,100842.75
2023-04-05T03:04:19.290Z,100837.38
2023-04-05T03:07:05.424Z,100791.13
2023-04-05T03:09:55.634Z,100778.38
2023-04-05T03:12:41.921Z,100805.31
2023-04-05T03:15:32.976Z,100778.72
2023-04-05T03:18:26.932Z,100805.19
2023-04-05T03:21:18.118Z,100773.63
2023-04-05T03:24:13.466Z,100784.84
2023-04-05T03:27:06.378Z,100796.41
2023-04-05T03:30:08.010Z,100791.00
2023-04-05T03:33:01.588Z,100811.44
2023-04-05T03:36:05.442Z,100835.47
2023-04-05T03:38:56.189Z,100842.09
2023-04-05T03:41:43.222Z,100757.13
2023-04-05T03:44:30.328Z,100821.09
2023-04-05T03:47:17.717Z,100782.59
2023-04-05T03:50:05.579Z,100839.97
2023-04-05T03:52:52.353Z,100773.59
2023-04-05T03:55:38.922Z,100821.09
2023-04-05T03:58:27.633Z,100837.53
2023-04-05T04:01:15.626Z,100752.25
2023-04-05T04:04:02.246Z,100846.53
2023-04-05T04:06:49.351Z,100818.69
2023-04-05T04:09:39.306Z,100835.63
2023-04-05T04:12:28.538Z,100817.56
2023-04-05T04:15:19.149Z,100785.06
2023-04-05T04:18:24.401Z,100795.13
2023-04-05T04:21:39.836Z,100818.66
2023-04-05T04:24:51.565Z,100812.88
2023-04-05T04:28:13.220Z,100840.50
2023-04-05T04:31:33.910Z,100845.94
2023-04-05T04:34:36.120Z,100806.56
2023-04-05T04:37:33.422Z,100819.94
2023-04-05T04:40:39.246Z,100792.88
2023-04-05T04:43:45.313Z,100858.38
2023-04-05T04:46:55.176Z,100813.59
2023-04-05T04:50:05.070Z,100828.72
2023-04-05T04:52:51.934Z,100820.47
2023-04-05T04:55:44.370Z,100788.34
2023-04-05T04:58:31.377Z,100801.16
2023-04-05T05:01:25.281Z,100821.72
2023-04-05T05:04:12.119Z,100800.00
2023-04-05T05:06:59.624Z,100823.31
2023-04-05T05:09:46.796Z,100778.84
2023-04-05T05:12:33.106Z,100835.91
2023-04-05T05:15:21.205Z,100789.84
2023-04-05T05:18:07.164Z,100792.66
2023-04-05T05:20:53.465Z,100810.84
2023-04-05T05:23:39.119Z,100824.69
2023-04-05T05:26:25.207Z,100764.94
2023-04-05T05:29:10.855Z,100846.88
2023-04-05T05:32:01.265Z,100736.66
2023-04-05T05:34:48.823Z,100761.69
2023-04-05T05:37:38.304Z,100818.84
2023-04-05T05:40:27.022Z,100861.41
2023-04-05T05:43:13.464Z,100809.16
2023-04-05T05:46:02.101Z,100802.53
2023-04-05T05:48:48.654Z,100831.88
2023-04-05T05:51:34.561Z,100858.34
2023-04-05T05:54:21.245Z,100817.72
2023-04-05T05:57:08.301Z,100860.69
2023-04-05T05:59:54.634Z,100798.78
2023-04-05T06:02:40.764Z,100824.53
2023-04-05T06:05:27.100Z,100848.03
2023-04-05T06:08:13.717Z,100858.34
2023-04-05T06:11:00.730Z,100852.88
2023-04-05T06:13:46.710Z,100818.44
2023-04-05T06:16:33.251Z,100822.94
2023-04-05T06:19:21.878Z,100856.97
2023-04-05T06:22:11.404Z,100854.50
2023-04-05T06:24:57.664Z,100816.97
2023-04-05T06:27:44.970Z,100813.75
2023-04-05T06:30:32.121Z,100720.97
2023-04-05T06:33:21.624Z,100829.94
2023-04-05T06:36:07.851Z,100854.97
2023-04-05T06:38:54.838Z,100779.00
2023-04-05T06:41:41.061Z,100782.69
2023-04-05T06:44:27.453Z,100748.22
2023-04-05T06:47:13.462Z,100785.75
2023-04-05T06:50:00.753Z,100791.09
2023-04-05T06:52:46.930Z,100789.47
2023-04-05T06:55:33.224Z,100857.00
2023-04-05T06:58:19.861Z,100807.47
2023-04-05T07:01:06.827Z,100840.72
2023-04-05T07:03:53.950Z,100834.41
2023-04-05T07:06:40.716Z,100794.63
2023-04-05T07:09:27.396Z,100814.59
2023-04-05T07:12:14.427Z,100783.94
2023-04-05T07:15:00.717Z,100860.63
2023-04-05T07:17:47.423Z,100805.84
2023-04-05T07:20:33.642Z,100760.75
2023-04-05T07:23:23.082Z,100871.38
2023-04-05T07:26:09.461Z,100821.66
2023-04-05T07:28:56.485Z,100880.09
2023-04-05T07:31:42.577Z,100871.66
2023-04-05T07:34:29.356Z,100839.31
2023-04-05T07:37:15.674Z,100894.47
2023-04-05T07:40:03.131Z,100765.91
2023-04-05T07:42:49.236Z,100818.00
2023-04-05T07:45:37.273Z,100822.50
2023-04-05T07:48:24.237Z,100883.50
2023-04-05T07:51:12.586Z,100886.91
2023-04-05T07:54:01.176Z,100786.38
2023-04-05T07:56:50.085Z,100885.81
2023-04-05T07:59:36.686Z,100878.13
2023-04-05T08:02:23.158Z,100819.06
2023-04-05T08:05:10.092Z,100730.66
2023-04-05T08:07:58.412Z,100836.94
2023-04-05T08:10:44.190Z,100879.25
2023-04-05T08:13:31.687Z,100805.88
2023-04-05T08:16:17.894Z,100837.59
2023-04-05T08:19:04.480Z,100757.34
2023-04-05T08:21:50.637Z,100867.97
2023-04-05T08:24:36.716Z,100864.25
2023-04-05T08:27:22.920Z,100819.22
2023-04-05T08:30:10.517Z,100833.00
2023-04-05T08:32:56.637Z,100853.34
2023-04-05T08:35:43.734Z,100787.69
2023-04-05T08:38:29.775Z,100807.44
2023-04-05T08:41:24.464Z,100754.88
2023-04-05T08:44:11.272Z,100870.34
2023-04-05T08:47:00.034Z,100862.78
2023-04-05T09:13:32.986Z,100859.16
2023-04-05T09:16:19.818Z,100838.59
2023-04-05T09:19:06.747Z,100775.50
2023-04-05T09:22:01.153Z,100844.16
2023-04-05T09:24:47.845Z,100849.69
2023-04-05T09:27:55.662Z,100840.81
2023-04-05T09:30:46.578Z,100761.44
2023-04-05T09:33:33.600Z,100859.03
2023-04-05T09:36:19.333Z,100795.69
2023-04-05T09:39:10.710Z,100875.44
2023-04-05T09:42:08.833Z,100799.91
2023-04-05T09:45:03.047Z,100857.03
2023-04-05T09:47:58.108Z,100797.94
2023-04-05T09:50:44.577Z,100754.47
2023-04-05T09:53:30.433Z,100875.22
2023-04-05T09:56:17.235Z,100831.78
2023-04-05T09:59:11.342Z,100791.06
2023-04-05T10:01:57.849Z,100763.31
2023-04-05T10:04:45.898Z,100762.03
2023-04-05T10:07:32.569Z,100756.44
2023-04-05T10:10:18.447Z,100814.13
2023-04-05T10:13:06.127Z,100845.78
2023-04-05T10:15:54.931Z,100840.41
2023-04-05T10:18:50.315Z,100858.75
2023-04-05T10:21:37.924Z,100717.22
2023-04-05T10:24:30.200Z,100855.75
2023-04-05T10:27:27.114Z,100767.19
2023-04-05T10:30:13.609Z,100800.44
2023-04-05T10:33:19.355Z,100766.84
2023-04-05T10:36:19.490Z,100833.06
2023-04-05T10:39:13.149Z,100858.75
2023-04-05T10:42:24.555Z,100798.50
2023-04-05T10:45:15.526Z,100748.25
2023-04-05T10:48:19.166Z,100857.88
2023-04-05T10:51:05.202Z,100766.97
2023-04-05T10:53:51.822Z,100816.28
2023-04-05T10:56:39.620Z,100742.75
2023-04-05T10:59:27.427Z,100749.09
2023-04-05T11:02:17.578Z,100862.22
2023-04-05T11:05:05.322Z,100718.19
2023-04-05T11:07:52.318Z,100782.44
2023-04-05T11:10:39.490Z,100797.97
2023-04-05T11:13:49.871Z,100726.88
2023-04-05T11:16:40.903Z,100846.56
2023-04-05T11:19:49.207Z,100772.63
2023-04-05T11:22:35.888Z,100801.69
2023-04-05T11:25:25.371Z,100801.28
2023-04-05T11:28:27.148Z,100720.28
2023-04-05T11:31:20.733Z,100718.72
2023-04-05T11:34:10.585Z,100751.31
2023-04-05T11:36:56.124Z,100763.34
2023-04-05T11:39:42.709Z,100784.16
2023-04-05T11:42:28.941Z,100758.00
2023-04-05T11:45:17.207Z,100826.31
2023-04-05T11:48:13.996Z,100823.28
2023-04-05T11:51:02.113Z,100821.84
2023-04-05T11:53:48.774Z,100822.91
2023-04-05T11:56:34.523Z,100829.00
2023-04-05T11:59:20.080Z,100784.09
2023-04-05T12:02:07.551Z,100797.88
2023-04-05T12:04:59.894Z,100820.50
2023-04-05T12:07:52.467Z,100829.44
2023-04-05T12:10:37.888Z,100793.06
2023-04-05T12:13:31.903Z,100823.88
2023-04-05T12:16:18.147Z,100820.72
2023-04-05T12:19:04.201Z,100824.69
2023-04-05T12:22:14.527Z,100819.97
2023-04-05T12:30:51.032Z,100810.16
2023-04-05T12:33:41.084Z,100812.31
2023-04-05T12:36:31.895Z,100812.25
2023-04-05T12:39:17.923Z,100814.09
2023-04-05T12:42:04.041Z,100770.53
2023-04-05T12:45:04.292Z,100806.34
2023-04-05T12:48:00.242Z,100812.78
2023-04-05T12:50:48.329Z,100773.34
2023-04-05T12:53:34.062Z,100790.09
2023-04-05T12:56:20.629Z,100796.47
2023-04-05T12:59:09.786Z,100808.81
2023-04-05T13:01:55.847Z,100801.94
2023-04-05T13:04:41.722Z,100760.16
2023-04-05T13:07:27.736Z,100782.41
2023-04-05T13:10:13.202Z,100796.81
2023-04-05T13:12:58.911Z,100775.53
2023-04-05T13:15:45.762Z,100801.53
2023-04-05T13:18:31.614Z,100797.19
2023-04-05T13:21:17.593Z,100792.97
2023-04-05T13:24:03.280Z,100796.97
2023-04-05T13:26:48.710Z,100790.97
2023-04-05T13:29:34.917Z,100763.16
2023-04-05T13:32:20.221Z,100759.53
2023-04-05T13:35:06.641Z,100795.16
2023-04-05T13:37:52.281Z,100753.63
2023-04-05T13:40:38.322Z,100772.75
2023-04-05T13:43:23.755Z,100799.28
2023-04-05T13:46:09.826Z,100790.81
2023-04-05T13:48:55.787Z,100783.13
2023-04-05T13:51:41.995Z,100793.97
2023-04-05T13:54:28.704Z,100793.44
2023-04-05T13:57:14.793Z,100765.88
2023-04-05T14:00:00.498Z,100785.75
2023-04-05T14:02:46.722Z,100797.72
2023-04-05T14:05:32.669Z,100759.72
2023-04-05T14:08:18.782Z,100771.16
2023-04-05T14:11:04.294Z,100795.41
2023-04-05T14:13:51.241Z,100775.75
2023-04-05T14:16:38.217Z,100739.94
2023-04-05T14:19:24.315Z,100774.81
2023-04-05T14:22:09.817Z,100756.91
2023-04-05T14:24:55.837Z,100795.91
2023-04-05T14:27:42.583Z,100787.69
2023-04-05T14:30:28.689Z,100782.38
2023-04-05T14:33:14.836Z,100771.91
2023-04-05T14:36:01.177Z,100789.31
2023-04-05T14:38:47.715Z,100783.22
2023-04-05T14:41:34.904Z,100794.31
2023-04-05T14:44:20.887Z,100789.84
2023-04-05T14:47:07.245Z,100782.88
2023-04-05T14:49:52.651Z,100786.94
2023-04-05T14:52:40.113Z,100796.72
2023-04-05T14:55:25.970Z,100739.84
2023-04-05T14:58:13.782Z,100761.28
2023-04-05T15:01:00.342Z,100772.38
2023-04-05T15:03:48.316Z,100782.75
2023-04-05T15:06:34.220Z,100776.38
2023-04-05T15:09:20.902Z,100779.28
2023-04-05T15:12:06.722Z,100754.72
2023-04-05T15:14:56.500Z,100789.59
2023-04-05T15:17:42.841Z,100795.28
2023-04-05T15:20:28.998Z,100779.78
2023-04-05T15:23:14.364Z,100783.59
2023-04-05T15:26:00.557Z,100795.75
2023-04-05T15:28:45.847Z,100795.94
2023-04-05T15:31:34.286Z,100798.28
2023-04-05T15:34:20.421Z,100785.94
2023-04-05T15:37:07.165Z,100795.69
2023-04-05T15:39:53.067Z,100792.59
2023-04-05T15:42:39.066Z,100801.22
2023-04-05T15:45:24.692Z,100801.78
2023-04-05T15:48:13.530Z,100807.75
2023-04-05T15:50:59.434Z,100778.44
2023-04-05T15:53:45.555Z,100806.50
2023-04-05T15:56:32.042Z,100819.84
2023-04-05T15:59:17.856Z,100814.94
2023-04-05T16:02:04.100Z,100806.47
2023-04-05T16:04:49.718Z,100811.38
2023-04-05T16:07:35.701Z,100776.38
2023-04-05T16:10:21.720Z,100803.53
2023-04-05T16:13:07.241Z,100809.59
2023-04-05T16:15:52.815Z,100795.91
2023-04-05T16:18:38.385Z,100800.25
2023-04-05T16:21:24.285Z,100784.84
2023-04-05T16:24:09.910Z,100807.75
2023-04-05T16:26:56.830Z,100807.13
2023-04-05T16:29:42.505Z,100799.19
2023-04-05T16:32:28.376Z,100804.47
2023-04-05T16:35:14.449Z,100762.59
2023-04-05T16:38:00.353Z,100812.66
2023-04-05T16:40:46.009Z,100727.84
2023-04-05T16:43:33.499Z,100817.13
2023-04-05T16:46:19.648Z,100813.84
2023-04-05T16:49:06.308Z,100818.38
2023-04-05T16:51:52.080Z,100823.25
2023-04-05T16:54:38.407Z,100820.97
2023-04-05T16:57:25.822Z,100818.56
2023-04-05T17:00:13.537Z,100827.00
2023-04-05T17:03:00.425Z,100821.28
2023-04-05T17:05:48.008Z,100820.50
2023-04-05T17:08:34.285Z,100823.78
2023-04-05T17:11:21.722Z,100823.16
2023-04-05T17:14:08.952Z,100818.94
2023-04-05T17:16:55.674Z,100806.38
2023-04-05T17:19:42.429Z,100832.44
2023-04-05T17:22:28.610Z,100838.53
2023-04-05T17:25:14.865Z,100839.31
2023-04-05T17:28:01.022Z,100832.72
2023-04-05T17:30:47.397Z,100839.22
2023-04-05T17:33:33.759Z,100848.50
2023-04-05T17:36:22.820Z,100836.50
2023-04-05T17:39:09.498Z,100842.00
2023-04-05T17:41:56.738Z,100847.03
2023-04-05T17:44:43.165Z,100852.59
2023-04-05T17:47:28.849Z,100862.53
2023-04-05T17:50:15.669Z,100850.53
2023-04-05T17:53:01.300Z,100858.94
2023-04-05T17:55:48.914Z,100870.72
2023-04-05T17:58:36.746Z,100861.59
2023-04-05T18:01:24.728Z,100867.13
2023-04-05T18:04:12.749Z,100875.09
2023-04-05T18:07:00.251Z,100883.28
2023-04-05T18:09:46.749Z,100883.28
2023-04-05T18:12:34.683Z,100895.22
2023-04-05T18:15:24.552Z,100884.63
2023-04-05T18:18:16.639Z,100891.97
2023-04-05T18:21:05.304Z,100868.03
2023-04-05T18:23:56.022Z,100893.31
2023-04-05T18:26:43.234Z,100893.81
2023-04-05T18:29:33.427Z,100901.47
2023-04-05T18:32:20.031Z,100903.78
2023-04-05T18:35:09.350Z,100885.63
2023-04-05T18:37:56.712Z,100905.00
2023-04-05T18:40:44.401Z,100908.84
2023-04-05T18:43:30.802Z,100909.16
2023-04-05T18:46:19.070Z,100905.47
2023-04-05T18:49:06.583Z,100911.13
2023-04-05T18:51:55.876Z,100853.72
2023-04-05T18:54:41.633Z,100878.19
2023-04-05T18:57:27.851Z,100899.09
2023-04-05T19:00:21.026Z,100910.75
2023-04-05T19:03:10.677Z,100912.59
2023-04-05T19:05:57.273Z,100917.88
2023-04-05T19:08:43.486Z,100890.19
2023-04-05T19:11:29.920Z,100925.88
2023-04-05T19:14:16.774Z,100932.84
2023-04-05T19:17:03.256Z,100925.81
2023-04-05T19:19:49.439Z,100911.56
2023-04-05T19:22:36.955Z,100888.22
2023-04-05T19:25:23.732Z,100930.41
2023-04-05T19:28:09.546Z,100907.19
2023-04-05T19:30:55.718Z,100925.78
2023-04-05T19:33:41.593Z,100937.91
2023-04-05T19:36:27.481Z,100941.69
2023-04-05T19:39:12.794Z,100894.94
2023-04-05T19:42:00.341Z,100937.97
2023-04-05T19:44:46.894Z,100940.16
2023-04-05T19:47:36.563Z,100883.63
2023-04-05T19:50:39.475Z,100911.56
2023-04-05T19:53:54.287Z,100931.44
2023-04-05T19:56:42.063Z,100942.00
2023-04-05T19:59:30.646Z,100941.63
2023-04-05T20:02:35.741Z,100938.63
2023-04-05T20:05:42.541Z,100943.00
2023-04-05T20:08:30.773Z,100939.22
2023-04-05T20:11:21.277Z,100933.03
2023-04-05T20:14:08.432Z,100938.63
2023-04-05T20:16:56.009Z,100882.25
2023-04-05T20:19:56.478Z,100929.13
2023-04-05T20:22:42.111Z,100924.16
2023-04-05T20:25:39.150Z,100934.75
2023-04-05T20:28:38.080Z,100929.03
2023-04-05T20:31:25.877Z,100934.34
2023-04-05T20:34:14.225Z,100889.44
2023-04-05T20:37:01.850Z,100929.16
2023-04-05T20:39:48.179Z,100918.31
2023-04-05T20:42:33.862Z,100911.75
2023-04-05T20:45:20.337Z,100888.25
2023-04-05T20:48:06.439Z,100924.47
2023-04-05T20:50:52.510Z,100914.34
2023-04-05T20:53:39.070Z,100912.91
2023-04-05T20:56:25.262Z,100909.03
2023-04-05T20:59:11.599Z,100918.06
2023-04-05T21:01:58.318Z,100911.34
2023-04-05T21:04:45.567Z,100889.91
2023-04-05T21:07:34.223Z,100919.59
2023-04-05T21:10:21.930Z,100906.22
2023-04-05T21:13:07.673Z,100907.47
2023-04-05T21:15:54.041Z,100900.81
2023-04-05T21:18:40.053Z,100898.09
2023-04-05T21:21:26.172Z,100905.47
2023-04-05T21:24:11.727Z,100895.22
2023-04-05T21:26:57.527Z,100892.94
2023-04-05T21:29:43.718Z,100897.69
2023-04-05T21:32:29.180Z,100911.25
2023-04-05T21:35:15.204Z,100876.00
2023-04-05T21:38:01.129Z,100899.09
2023-04-05T21:40:47.812Z,100905.22
2023-04-05T21:43:33.656Z,100870.91
2023-04-05T21:46:20.681Z,100908.88
2023-04-05T21:49:07.981Z,100831.59
2023-04-05T21:51:54.034Z,100898.19
2023-04-05T21:54:40.055Z,100808.53
2023-04-05T21:57:26.317Z,100904.94
2023-04-05T22:00:12.252Z,100871.13
2023-04-05T22:03:01.295Z,100903.00
2023-04-05T22:05:47.106Z,100902.16
2023-04-05T22:08:34.362Z,100902.44
2023-04-05T22:11:20.780Z,100880.56
2023-04-05T22:14:06.739Z,100911.66
2023-04-05T22:16:53.313Z,100919.25
2023-04-05T22:19:58.060Z,100886.66
2023-04-05T22:23:02.502Z,100905.16
2023-04-05T22:26:07.508Z,100909.13
2023-04-05T22:28:53.190Z,100888.66
2023-04-05T22:31:39.259Z,100914.50
2023-04-05T22:34:44.131Z,100897.97
2023-04-05T22:37:49.196Z,100914.34
2023-04-05T22:40:34.957Z,100916.84
2023-04-05T22:43:39.640Z,100905.59
2023-04-05T22:46:25.644Z,100922.09
2023-04-05T22:49:30.760Z,100860.63
2023-04-05T22:52:35.600Z,100922.78
2023-04-05T22:55:41.134Z,100918.28
2023-04-05T22:58:45.695Z,100855.50
2023-04-05T23:01:31.658Z,100907.66
2023-04-05T23:04:36.082Z,100911.75
2023-04-05T23:07:40.783Z,100879.78
2023-04-05T23:10:26.130Z,100907.97
2023-04-05T23:13:32.196Z,100914.31
2023-04-05T23:16:37.896Z,100905.38
2023-04-05T23:19:23.942Z,100876.91
2023-04-05T23:22:28.380Z,100915.50
2023-04-05T23:25:14.495Z,100909.59
2023-04-05T23:28:01.428Z,100918.22
2023-04-05T23:30:49.161Z,100911.66
2023-04-05T23:33:54.601Z,100906.41
2023-04-05T23:36:40.791Z,100897.81
2023-04-05T23:39:26.808Z,100913.06
2023-04-05T23:42:13.483Z,100913.38
2023-04-05T23:45:01.944Z,100919.03
2023-04-05T23:48:06.902Z,100901.22
2023-04-05T23:51:11.359Z,100920.78
2023-04-05T23:54:16.066Z,100919.03
2023-04-05T23:57:21.345Z,100910.50
